sensor_id;sensor_type;location;lat;lon;timestamp;P1;durP1;ratioP1;P2;durP2;ratioP2
35550;SDS011;21655;46.056;13.616;2023-07-20T00:02:14;13.80;;;6.05;;
35550;SDS011;21655;46.056;13.616;2023-07-20T00:04:39;15.65;;;5.90;;
35550;SDS011;21655;46.056;13.616;2023-07-20T00:07:05;13.43;;;5.53;;
35550;SDS011;21655;46.056;13.616;2023-07-20T00:09:30;11.98;;;5.95;;
35550;SDS011;21655;46.056;13.616;2023-07-20T00:11:57;17.48;;;5.80;;
35550;SDS011;21655;46.056;13.616;2023-07-20T00:14:25;14.32;;;4.68;;
35550;SDS011;21655;46.056;13.616;2023-07-20T00:16:50;14.38;;;5.57;;
35550;SDS011;21655;46.056;13.616;2023-07-20T00:19:23;11.65;;;6.43;;
35550;SDS011;21655;46.056;13.616;2023-07-20T00:21:50;15.70;;;6.00;;
35550;SDS011;21655;46.056;13.616;2023-07-20T00:24:16;13.10;;;6.00;;
35550;SDS011;21655;46.056;13.616;2023-07-20T00:26:41;12.05;;;5.47;;
35550;SDS011;21655;46.056;13.616;2023-07-20T00:29:07;15.73;;;5.35;;
35550;SDS011;21655;46.056;13.616;2023-07-20T00:31:32;10.65;;;5.03;;
35550;SDS011;21655;46.056;13.616;2023-07-20T00:34:00;11.77;;;5.80;;
35550;SDS011;21655;46.056;13.616;2023-07-20T00:36:25;12.95;;;5.22;;
35550;SDS011;21655;46.056;13.616;2023-07-20T00:38:51;14.38;;;5.68;;
35550;SDS011;21655;46.056;13.616;2023-07-20T00:41:16;16.92;;;5.18;;
35550;SDS011;21655;46.056;13.616;2023-07-20T00:43:42;13.73;;;5.90;;
35550;SDS011;21655;46.056;13.616;2023-07-20T00:46:08;14.23;;;5.78;;
35550;SDS011;21655;46.056;13.616;2023-07-20T00:48:34;11.70;;;5.78;;
35550;SDS011;21655;46.056;13.616;2023-07-20T00:51:00;15.85;;;5.93;;
35550;SDS011;21655;46.056;13.616;2023-07-20T00:53:27;12.82;;;5.28;;
35550;SDS011;21655;46.056;13.616;2023-07-20T00:55:53;12.25;;;5.18;;
35550;SDS011;21655;46.056;13.616;2023-07-20T00:58:18;12.30;;;5.65;;
35550;SDS011;21655;46.056;13.616;2023-07-20T01:00:44;20.45;;;5.47;;
35550;SDS011;21655;46.056;13.616;2023-07-20T01:03:10;22.10;;;5.55;;
35550;SDS011;21655;46.056;13.616;2023-07-20T01:05:46;10.52;;;5.63;;
35550;SDS011;21655;46.056;13.616;2023-07-20T01:11:06;18.02;;;5.03;;
35550;SDS011;21655;46.056;13.616;2023-07-20T01:13:38;11.32;;;4.57;;
35550;SDS011;21655;46.056;13.616;2023-07-20T01:16:04;12.10;;;4.60;;
35550;SDS011;21655;46.056;13.616;2023-07-20T01:18:30;8.35;;;4.05;;
35550;SDS011;21655;46.056;13.616;2023-07-20T01:20:58;9.38;;;3.88;;
35550;SDS011;21655;46.056;13.616;2023-07-20T01:32:39;9.50;;;3.60;;
35550;SDS011;21655;46.056;13.616;2023-07-20T01:35:07;10.35;;;3.75;;
35550;SDS011;21655;46.056;13.616;2023-07-20T01:37:35;7.93;;;3.60;;
35550;SDS011;21655;46.056;13.616;2023-07-20T01:40:02;5.72;;;3.28;;
35550;SDS011;21655;46.056;13.616;2023-07-20T01:42:28;13.50;;;3.58;;
35550;SDS011;21655;46.056;13.616;2023-07-20T01:44:54;8.07;;;3.30;;
35550;SDS011;21655;46.056;13.616;2023-07-20T01:47:20;7.30;;;3.40;;
35550;SDS011;21655;46.056;13.616;2023-07-20T01:49:45;14.23;;;3.90;;
35550;SDS011;21655;46.056;13.616;2023-07-20T01:52:11;9.70;;;4.05;;
35550;SDS011;21655;46.056;13.616;2023-07-20T01:54:36;7.47;;;3.47;;
35550;SDS011;21655;46.056;13.616;2023-07-20T01:57:02;9.60;;;3.70;;
35550;SDS011;21655;46.056;13.616;2023-07-20T01:59:27;11.10;;;3.95;;
35550;SDS011;21655;46.056;13.616;2023-07-20T02:01:53;6.93;;;3.40;;
35550;SDS011;21655;46.056;13.616;2023-07-20T02:04:19;8.88;;;3.42;;
35550;SDS011;21655;46.056;13.616;2023-07-20T02:06:44;6.78;;;3.17;;
35550;SDS011;21655;46.056;13.616;2023-07-20T02:09:09;9.25;;;3.38;;
35550;SDS011;21655;46.056;13.616;2023-07-20T02:11:35;6.47;;;3.20;;
35550;SDS011;21655;46.056;13.616;2023-07-20T02:14:00;8.05;;;2.90;;
35550;SDS011;21655;46.056;13.616;2023-07-20T02:16:26;12.98;;;3.38;;
35550;SDS011;21655;46.056;13.616;2023-07-20T02:18:52;8.90;;;3.20;;
35550;SDS011;21655;46.056;13.616;2023-07-20T02:21:18;6.68;;;4.00;;
35550;SDS011;21655;46.056;13.616;2023-07-20T02:23:43;5.63;;;3.08;;
35550;SDS011;21655;46.056;13.616;2023-07-20T02:26:09;8.73;;;3.42;;
35550;SDS011;21655;46.056;13.616;2023-07-20T02:28:34;7.63;;;3.17;;
35550;SDS011;21655;46.056;13.616;2023-07-20T02:30:59;8.13;;;3.03;;
35550;SDS011;21655;46.056;13.616;2023-07-20T02:33:25;7.93;;;3.30;;
35550;SDS011;21655;46.056;13.616;2023-07-20T02:35:51;9.45;;;3.75;;
35550;SDS011;21655;46.056;13.616;2023-07-20T02:38:17;9.90;;;3.75;;
35550;SDS011;21655;46.056;13.616;2023-07-20T02:40:42;6.78;;;3.05;;
35550;SDS011;21655;46.056;13.616;2023-07-20T02:43:08;12.57;;;3.78;;
35550;SDS011;21655;46.056;13.616;2023-07-20T02:45:34;10.68;;;3.65;;
35550;SDS011;21655;46.056;13.616;2023-07-20T02:48:00;11.43;;;3.40;;
35550;SDS011;21655;46.056;13.616;2023-07-20T02:50:26;6.13;;;3.58;;
35550;SDS011;21655;46.056;13.616;2023-07-20T02:52:51;6.22;;;3.22;;
35550;SDS011;21655;46.056;13.616;2023-07-20T02:55:16;9.75;;;3.10;;
35550;SDS011;21655;46.056;13.616;2023-07-20T02:57:42;7.25;;;3.20;;
35550;SDS011;21655;46.056;13.616;2023-07-20T03:00:07;12.52;;;4.32;;
35550;SDS011;21655;46.056;13.616;2023-07-20T03:02:34;6.97;;;4.00;;
35550;SDS011;21655;46.056;13.616;2023-07-20T03:04:59;9.35;;;4.07;;
35550;SDS011;21655;46.056;13.616;2023-07-20T03:07:26;9.50;;;3.53;;
35550;SDS011;21655;46.056;13.616;2023-07-20T03:09:53;6.47;;;3.40;;
35550;SDS011;21655;46.056;13.616;2023-07-20T03:12:20;7.38;;;3.20;;
35550;SDS011;21655;46.056;13.616;2023-07-20T03:14:45;9.48;;;3.33;;
35550;SDS011;21655;46.056;13.616;2023-07-20T03:17:11;7.70;;;3.50;;
35550;SDS011;21655;46.056;13.616;2023-07-20T03:19:36;12.68;;;4.05;;
35550;SDS011;21655;46.056;13.616;2023-07-20T03:22:02;9.73;;;3.47;;
35550;SDS011;21655;46.056;13.616;2023-07-20T03:24:27;8.55;;;3.60;;
35550;SDS011;21655;46.056;13.616;2023-07-20T03:26:52;9.90;;;3.17;;
35550;SDS011;21655;46.056;13.616;2023-07-20T03:29:18;11.98;;;3.78;;
35550;SDS011;21655;46.056;13.616;2023-07-20T03:31:43;7.35;;;3.35;;
35550;SDS011;21655;46.056;13.616;2023-07-20T03:34:09;8.40;;;3.67;;
35550;SDS011;21655;46.056;13.616;2023-07-20T03:36:34;9.18;;;3.70;;
35550;SDS011;21655;46.056;13.616;2023-07-20T03:39:00;8.85;;;3.78;;
35550;SDS011;21655;46.056;13.616;2023-07-20T03:41:25;5.93;;;3.53;;
35550;SDS011;21655;46.056;13.616;2023-07-20T03:43:51;7.75;;;3.60;;
35550;SDS011;21655;46.056;13.616;2023-07-20T03:46:16;8.57;;;3.95;;
35550;SDS011;21655;46.056;13.616;2023-07-20T03:48:42;11.70;;;3.95;;
35550;SDS011;21655;46.056;13.616;2023-07-20T03:51:07;8.30;;;4.10;;
35550;SDS011;21655;46.056;13.616;2023-07-20T03:53:33;7.50;;;3.70;;
35550;SDS011;21655;46.056;13.616;2023-07-20T03:55:58;7.78;;;3.92;;
35550;SDS011;21655;46.056;13.616;2023-07-20T03:58:24;10.13;;;3.67;;
35550;SDS011;21655;46.056;13.616;2023-07-20T04:00:50;11.43;;;3.55;;
35550;SDS011;21655;46.056;13.616;2023-07-20T04:03:19;12.18;;;3.88;;
35550;SDS011;21655;46.056;13.616;2023-07-20T04:05:45;15.43;;;3.90;;
35550;SDS011;21655;46.056;13.616;2023-07-20T04:08:11;10.98;;;4.00;;
35550;SDS011;21655;46.056;13.616;2023-07-20T04:10:37;16.35;;;3.80;;
35550;SDS011;21655;46.056;13.616;2023-07-20T04:13:03;8.93;;;3.70;;
35550;SDS011;21655;46.056;13.616;2023-07-20T04:15:30;12.63;;;4.13;;
35550;SDS011;21655;46.056;13.616;2023-07-20T04:17:56;9.80;;;3.28;;
35550;SDS011;21655;46.056;13.616;2023-07-20T04:20:22;8.25;;;3.80;;
35550;SDS011;21655;46.056;13.616;2023-07-20T04:22:48;9.32;;;3.78;;
35550;SDS011;21655;46.056;13.616;2023-07-20T04:25:14;9.68;;;3.58;;
35550;SDS011;21655;46.056;13.616;2023-07-20T04:27:40;8.70;;;3.47;;
35550;SDS011;21655;46.056;13.616;2023-07-20T04:30:07;9.35;;;3.42;;
35550;SDS011;21655;46.056;13.616;2023-07-20T04:32:33;15.05;;;4.05;;
35550;SDS011;21655;46.056;13.616;2023-07-20T04:34:59;9.20;;;4.18;;
35550;SDS011;21655;46.056;13.616;2023-07-20T04:37:24;9.38;;;3.83;;
35550;SDS011;21655;46.056;13.616;2023-07-20T04:39:50;14.82;;;3.78;;
35550;SDS011;21655;46.056;13.616;2023-07-20T04:42:15;10.90;;;3.50;;
35550;SDS011;21655;46.056;13.616;2023-07-20T04:44:41;12.27;;;4.15;;
35550;SDS011;21655;46.056;13.616;2023-07-20T04:47:06;8.60;;;3.83;;
35550;SDS011;21655;46.056;13.616;2023-07-20T04:49:32;8.13;;;3.35;;
35550;SDS011;21655;46.056;13.616;2023-07-20T04:51:57;11.95;;;3.70;;
35550;SDS011;21655;46.056;13.616;2023-07-20T04:54:22;9.68;;;3.60;;
35550;SDS011;21655;46.056;13.616;2023-07-20T04:56:48;7.18;;;3.28;;
35550;SDS011;21655;46.056;13.616;2023-07-20T04:59:13;7.88;;;3.17;;
35550;SDS011;21655;46.056;13.616;2023-07-20T05:01:39;8.90;;;3.10;;
35550;SDS011;21655;46.056;13.616;2023-07-20T05:04:04;6.95;;;3.15;;
35550;SDS011;21655;46.056;13.616;2023-07-20T05:06:30;12.70;;;3.22;;
35550;SDS011;21655;46.056;13.616;2023-07-20T05:08:55;8.23;;;2.65;;
35550;SDS011;21655;46.056;13.616;2023-07-20T05:11:21;9.55;;;2.65;;
35550;SDS011;21655;46.056;13.616;2023-07-20T05:13:46;8.57;;;2.60;;
35550;SDS011;21655;46.056;13.616;2023-07-20T05:16:12;8.13;;;2.53;;
35550;SDS011;21655;46.056;13.616;2023-07-20T05:18:37;7.97;;;2.70;;
35550;SDS011;21655;46.056;13.616;2023-07-20T05:21:03;5.20;;;2.92;;
35550;SDS011;21655;46.056;13.616;2023-07-20T05:23:28;9.02;;;2.97;;
35550;SDS011;21655;46.056;13.616;2023-07-20T05:25:57;11.35;;;2.95;;
35550;SDS011;21655;46.056;13.616;2023-07-20T05:28:24;13.68;;;3.22;;
35550;SDS011;21655;46.056;13.616;2023-07-20T05:30:51;8.23;;;2.78;;
35550;SDS011;21655;46.056;13.616;2023-07-20T05:33:17;8.05;;;2.40;;
35550;SDS011;21655;46.056;13.616;2023-07-20T05:35:43;7.55;;;3.20;;
35550;SDS011;21655;46.056;13.616;2023-07-20T05:38:09;9.35;;;2.63;;
35550;SDS011;21655;46.056;13.616;2023-07-20T05:40:37;11.13;;;2.92;;
35550;SDS011;21655;46.056;13.616;2023-07-20T05:43:03;10.85;;;3.28;;
35550;SDS011;21655;46.056;13.616;2023-07-20T05:45:28;13.77;;;2.80;;
35550;SDS011;21655;46.056;13.616;2023-07-20T05:47:53;6.32;;;2.42;;
35550;SDS011;21655;46.056;13.616;2023-07-20T05:50:19;9.90;;;2.70;;
35550;SDS011;21655;46.056;13.616;2023-07-20T05:52:44;10.80;;;3.10;;
35550;SDS011;21655;46.056;13.616;2023-07-20T05:55:10;8.48;;;2.58;;
35550;SDS011;21655;46.056;13.616;2023-07-20T05:57:35;8.27;;;2.70;;
35550;SDS011;21655;46.056;13.616;2023-07-20T06:00:01;8.23;;;2.50;;
35550;SDS011;21655;46.056;13.616;2023-07-20T06:02:28;4.65;;;2.20;;
35550;SDS011;21655;46.056;13.616;2023-07-20T06:04:53;8.05;;;2.70;;
35550;SDS011;21655;46.056;13.616;2023-07-20T06:07:19;8.38;;;2.70;;
35550;SDS011;21655;46.056;13.616;2023-07-20T06:09:45;5.63;;;2.60;;
35550;SDS011;21655;46.056;13.616;2023-07-20T06:12:11;10.25;;;2.67;;
35550;SDS011;21655;46.056;13.616;2023-07-20T06:14:37;12.15;;;2.70;;
35550;SDS011;21655;46.056;13.616;2023-07-20T06:17:03;8.88;;;2.92;;
35550;SDS011;21655;46.056;13.616;2023-07-20T06:19:29;7.97;;;2.85;;
35550;SDS011;21655;46.056;13.616;2023-07-20T06:21:54;7.95;;;2.58;;
35550;SDS011;21655;46.056;13.616;2023-07-20T06:24:19;5.20;;;2.30;;
35550;SDS011;21655;46.056;13.616;2023-07-20T06:26:45;11.52;;;2.72;;
35550;SDS011;21655;46.056;13.616;2023-07-20T06:29:10;6.45;;;2.70;;
35550;SDS011;21655;46.056;13.616;2023-07-20T06:31:36;9.02;;;2.67;;
35550;SDS011;21655;46.056;13.616;2023-07-20T06:34:02;8.82;;;2.30;;
35550;SDS011;21655;46.056;13.616;2023-07-20T06:36:28;6.53;;;2.67;;
35550;SDS011;21655;46.056;13.616;2023-07-20T06:38:54;5.95;;;2.63;;
35550;SDS011;21655;46.056;13.616;2023-07-20T06:41:20;7.13;;;2.63;;
35550;SDS011;21655;46.056;13.616;2023-07-20T06:43:46;4.85;;;2.53;;
35550;SDS011;21655;46.056;13.616;2023-07-20T06:46:12;7.63;;;2.45;;
35550;SDS011;21655;46.056;13.616;2023-07-20T06:48:38;7.75;;;2.30;;
35550;SDS011;21655;46.056;13.616;2023-07-20T06:51:03;5.43;;;2.55;;
35550;SDS011;21655;46.056;13.616;2023-07-20T06:53:29;5.85;;;2.70;;
35550;SDS011;21655;46.056;13.616;2023-07-20T06:55:55;12.00;;;2.60;;
35550;SDS011;21655;46.056;13.616;2023-07-20T06:58:23;6.28;;;2.50;;
35550;SDS011;21655;46.056;13.616;2023-07-20T07:00:49;7.53;;;2.42;;
35550;SDS011;21655;46.056;13.616;2023-07-20T07:03:15;5.40;;;2.15;;
35550;SDS011;21655;46.056;13.616;2023-07-20T07:05:41;6.05;;;2.05;;
35550;SDS011;21655;46.056;13.616;2023-07-20T07:08:06;5.45;;;2.38;;
35550;SDS011;21655;46.056;13.616;2023-07-20T07:10:33;8.00;;;2.42;;
35550;SDS011;21655;46.056;13.616;2023-07-20T07:13:00;8.65;;;2.50;;
35550;SDS011;21655;46.056;13.616;2023-07-20T07:15:26;5.75;;;2.15;;
35550;SDS011;21655;46.056;13.616;2023-07-20T07:17:52;9.60;;;3.05;;
35550;SDS011;21655;46.056;13.616;2023-07-20T07:20:18;5.25;;;2.50;;
35550;SDS011;21655;46.056;13.616;2023-07-20T07:22:43;6.22;;;2.10;;
35550;SDS011;21655;46.056;13.616;2023-07-20T07:25:09;5.05;;;2.00;;
35550;SDS011;21655;46.056;13.616;2023-07-20T07:27:34;5.15;;;1.77;;
35550;SDS011;21655;46.056;13.616;2023-07-20T07:30:00;8.75;;;2.42;;
35550;SDS011;21655;46.056;13.616;2023-07-20T07:32:25;8.32;;;3.78;;
35550;SDS011;21655;46.056;13.616;2023-07-20T07:34:51;6.88;;;2.40;;
35550;SDS011;21655;46.056;13.616;2023-07-20T07:37:17;5.97;;;2.03;;
35550;SDS011;21655;46.056;13.616;2023-07-20T07:39:44;4.28;;;1.60;;
35550;SDS011;21655;46.056;13.616;2023-07-20T07:42:10;4.88;;;2.20;;
35550;SDS011;21655;46.056;13.616;2023-07-20T07:44:36;6.10;;;1.75;;
35550;SDS011;21655;46.056;13.616;2023-07-20T07:47:02;5.82;;;1.80;;
35550;SDS011;21655;46.056;13.616;2023-07-20T07:49:27;5.30;;;1.50;;
35550;SDS011;21655;46.056;13.616;2023-07-20T07:51:53;4.65;;;1.50;;
35550;SDS011;21655;46.056;13.616;2023-07-20T07:54:18;4.53;;;1.85;;
35550;SDS011;21655;46.056;13.616;2023-07-20T07:56:43;4.70;;;2.05;;
35550;SDS011;21655;46.056;13.616;2023-07-20T07:59:09;4.72;;;1.80;;
35550;SDS011;21655;46.056;13.616;2023-07-20T08:01:35;5.05;;;1.75;;
35550;SDS011;21655;46.056;13.616;2023-07-20T08:04:00;3.67;;;1.50;;
35550;SDS011;21655;46.056;13.616;2023-07-20T08:06:25;6.13;;;1.50;;
35550;SDS011;21655;46.056;13.616;2023-07-20T08:08:51;6.93;;;1.88;;
35550;SDS011;21655;46.056;13.616;2023-07-20T08:11:16;3.58;;;1.50;;
35550;SDS011;21655;46.056;13.616;2023-07-20T08:13:43;6.32;;;2.00;;
35550;SDS011;21655;46.056;13.616;2023-07-20T08:16:08;3.75;;;1.70;;
35550;SDS011;21655;46.056;13.616;2023-07-20T08:18:34;4.85;;;1.52;;
35550;SDS011;21655;46.056;13.616;2023-07-20T08:20:59;2.88;;;1.48;;
35550;SDS011;21655;46.056;13.616;2023-07-20T08:23:25;8.77;;;1.90;;
35550;SDS011;21655;46.056;13.616;2023-07-20T08:25:52;9.98;;;2.28;;
35550;SDS011;21655;46.056;13.616;2023-07-20T08:28:18;3.95;;;1.90;;
35550;SDS011;21655;46.056;13.616;2023-07-20T08:30:44;4.70;;;1.90;;
35550;SDS011;21655;46.056;13.616;2023-07-20T08:33:12;5.15;;;2.20;;
35550;SDS011;21655;46.056;13.616;2023-07-20T08:35:38;6.20;;;1.88;;
35550;SDS011;21655;46.056;13.616;2023-07-20T08:38:04;4.53;;;1.80;;
35550;SDS011;21655;46.056;13.616;2023-07-20T08:40:33;4.25;;;2.13;;
35550;SDS011;21655;46.056;13.616;2023-07-20T08:43:04;3.55;;;1.90;;
35550;SDS011;21655;46.056;13.616;2023-07-20T08:45:29;4.60;;;2.10;;
35550;SDS011;21655;46.056;13.616;2023-07-20T08:47:58;4.28;;;1.92;;
35550;SDS011;21655;46.056;13.616;2023-07-20T08:50:25;4.05;;;1.90;;
35550;SDS011;21655;46.056;13.616;2023-07-20T08:52:52;3.33;;;1.77;;
35550;SDS011;21655;46.056;13.616;2023-07-20T08:55:18;8.30;;;1.88;;
35550;SDS011;21655;46.056;13.616;2023-07-20T08:57:45;3.58;;;1.85;;
35550;SDS011;21655;46.056;13.616;2023-07-20T09:00:14;3.45;;;2.00;;
35550;SDS011;21655;46.056;13.616;2023-07-20T09:02:42;5.72;;;1.92;;
35550;SDS011;21655;46.056;13.616;2023-07-20T09:05:10;4.53;;;1.90;;
35550;SDS011;21655;46.056;13.616;2023-07-20T09:07:35;3.80;;;2.25;;
35550;SDS011;21655;46.056;13.616;2023-07-20T09:10:01;7.97;;;2.30;;
35550;SDS011;21655;46.056;13.616;2023-07-20T09:12:31;4.82;;;1.88;;
35550;SDS011;21655;46.056;13.616;2023-07-20T09:14:59;7.72;;;2.15;;
35550;SDS011;21655;46.056;13.616;2023-07-20T09:17:26;3.97;;;2.13;;
35550;SDS011;21655;46.056;13.616;2023-07-20T09:19:51;6.93;;;2.40;;
35550;SDS011;21655;46.056;13.616;2023-07-20T09:22:17;7.43;;;2.75;;
35550;SDS011;21655;46.056;13.616;2023-07-20T09:24:42;4.70;;;2.22;;
35550;SDS011;21655;46.056;13.616;2023-07-20T09:27:09;5.07;;;1.90;;
35550;SDS011;21655;46.056;13.616;2023-07-20T09:29:46;10.40;;;2.03;;
35550;SDS011;21655;46.056;13.616;2023-07-20T09:32:19;6.03;;;2.42;;
35550;SDS011;21655;46.056;13.616;2023-07-20T09:34:45;5.97;;;2.15;;
35550;SDS011;21655;46.056;13.616;2023-07-20T09:37:11;5.00;;;2.22;;
35550;SDS011;21655;46.056;13.616;2023-07-20T09:39:43;5.20;;;2.20;;
35550;SDS011;21655;46.056;13.616;2023-07-20T09:44:36;6.20;;;2.55;;
35550;SDS011;21655;46.056;13.616;2023-07-20T09:47:03;4.55;;;2.65;;
35550;SDS011;21655;46.056;13.616;2023-07-20T09:49:29;9.27;;;2.92;;
35550;SDS011;21655;46.056;13.616;2023-07-20T09:51:54;3.95;;;2.30;;
35550;SDS011;21655;46.056;13.616;2023-07-20T09:54:22;5.65;;;2.40;;
35550;SDS011;21655;46.056;13.616;2023-07-20T09:56:48;5.65;;;2.33;;
35550;SDS011;21655;46.056;13.616;2023-07-20T09:59:16;6.70;;;2.97;;
35550;SDS011;21655;46.056;13.616;2023-07-20T10:01:41;3.65;;;2.00;;
35550;SDS011;21655;46.056;13.616;2023-07-20T10:04:09;6.25;;;2.35;;
35550;SDS011;21655;46.056;13.616;2023-07-20T10:06:36;3.58;;;2.13;;
35550;SDS011;21655;46.056;13.616;2023-07-20T10:09:07;4.40;;;2.00;;
35550;SDS011;21655;46.056;13.616;2023-07-20T10:11:35;6.57;;;2.22;;
35550;SDS011;21655;46.056;13.616;2023-07-20T10:14:04;4.35;;;2.20;;
35550;SDS011;21655;46.056;13.616;2023-07-20T10:16:36;6.68;;;2.38;;
35550;SDS011;21655;46.056;13.616;2023-07-20T10:22:09;3.13;;;1.90;;
35550;SDS011;21655;46.056;13.616;2023-07-20T10:24:39;5.20;;;2.42;;
35550;SDS011;21655;46.056;13.616;2023-07-20T10:27:06;6.13;;;2.20;;
35550;SDS011;21655;46.056;13.616;2023-07-20T10:29:32;4.70;;;2.25;;
35550;SDS011;21655;46.056;13.616;2023-07-20T10:31:58;5.70;;;2.30;;
35550;SDS011;21655;46.056;13.616;2023-07-20T10:34:24;7.45;;;2.53;;
35550;SDS011;21655;46.056;13.616;2023-07-20T10:36:50;5.68;;;2.45;;
35550;SDS011;21655;46.056;13.616;2023-07-20T10:39:27;5.60;;;2.28;;
35550;SDS011;21655;46.056;13.616;2023-07-20T10:42:09;3.67;;;2.25;;
35550;SDS011;21655;46.056;13.616;2023-07-20T10:44:41;4.63;;;2.20;;
35550;SDS011;21655;46.056;13.616;2023-07-20T10:47:10;4.35;;;2.28;;
35550;SDS011;21655;46.056;13.616;2023-07-20T10:52:25;4.13;;;2.63;;
35550;SDS011;21655;46.056;13.616;2023-07-20T10:54:50;6.13;;;2.53;;
35550;SDS011;21655;46.056;13.616;2023-07-20T10:57:37;8.18;;;4.25;;
35550;SDS011;21655;46.056;13.616;2023-07-20T11:00:20;4.88;;;2.47;;
35550;SDS011;21655;46.056;13.616;2023-07-20T11:02:48;5.57;;;2.45;;
35550;SDS011;21655;46.056;13.616;2023-07-20T11:05:36;6.35;;;2.70;;
35550;SDS011;21655;46.056;13.616;2023-07-20T11:08:06;6.30;;;2.70;;
35550;SDS011;21655;46.056;13.616;2023-07-20T11:10:35;5.25;;;2.70;;
35550;SDS011;21655;46.056;13.616;2023-07-20T11:13:20;9.02;;;2.88;;
35550;SDS011;21655;46.056;13.616;2023-07-20T11:15:48;5.53;;;2.70;;
35550;SDS011;21655;46.056;13.616;2023-07-20T11:18:28;5.80;;;2.80;;
35550;SDS011;21655;46.056;13.616;2023-07-20T11:20:54;7.47;;;2.63;;
35550;SDS011;21655;46.056;13.616;2023-07-20T11:23:20;6.40;;;2.80;;
35550;SDS011;21655;46.056;13.616;2023-07-20T11:25:46;4.43;;;2.45;;
35550;SDS011;21655;46.056;13.616;2023-07-20T11:28:11;6.07;;;2.38;;
35550;SDS011;21655;46.056;13.616;2023-07-20T11:30:37;5.88;;;2.60;;
35550;SDS011;21655;46.056;13.616;2023-07-20T11:33:04;5.82;;;2.95;;
35550;SDS011;21655;46.056;13.616;2023-07-20T11:35:30;7.57;;;2.47;;
35550;SDS011;21655;46.056;13.616;2023-07-20T11:37:56;4.90;;;3.00;;
35550;SDS011;21655;46.056;13.616;2023-07-20T11:40:22;8.15;;;2.90;;
35550;SDS011;21655;46.056;13.616;2023-07-20T11:42:48;4.18;;;2.72;;
35550;SDS011;21655;46.056;13.616;2023-07-20T11:45:16;5.85;;;3.20;;
35550;SDS011;21655;46.056;13.616;2023-07-20T11:47:42;6.35;;;2.65;;
35550;SDS011;21655;46.056;13.616;2023-07-20T11:50:08;5.22;;;2.67;;
35550;SDS011;21655;46.056;13.616;2023-07-20T11:52:34;6.45;;;2.70;;
35550;SDS011;21655;46.056;13.616;2023-07-20T11:55:00;7.22;;;3.75;;
35550;SDS011;21655;46.056;13.616;2023-07-20T11:57:26;6.75;;;3.00;;
35550;SDS011;21655;46.056;13.616;2023-07-20T11:59:55;6.25;;;2.88;;
35550;SDS011;21655;46.056;13.616;2023-07-20T12:02:27;6.30;;;2.83;;
35550;SDS011;21655;46.056;13.616;2023-07-20T12:04:56;5.18;;;3.10;;
35550;SDS011;21655;46.056;13.616;2023-07-20T12:07:23;7.68;;;3.90;;
35550;SDS011;21655;46.056;13.616;2023-07-20T12:10:07;6.45;;;2.72;;
35550;SDS011;21655;46.056;13.616;2023-07-20T12:12:43;7.03;;;3.05;;
35550;SDS011;21655;46.056;13.616;2023-07-20T12:15:17;5.32;;;3.00;;
35550;SDS011;21655;46.056;13.616;2023-07-20T12:17:45;8.05;;;2.83;;
35550;SDS011;21655;46.056;13.616;2023-07-20T12:20:11;6.45;;;2.95;;
35550;SDS011;21655;46.056;13.616;2023-07-20T12:22:40;5.40;;;3.00;;
35550;SDS011;21655;46.056;13.616;2023-07-20T12:25:08;4.47;;;3.08;;
35550;SDS011;21655;46.056;13.616;2023-07-20T12:27:37;4.90;;;2.58;;
35550;SDS011;21655;46.056;13.616;2023-07-20T12:30:03;5.05;;;2.90;;
35550;SDS011;21655;46.056;13.616;2023-07-20T12:32:32;6.22;;;3.17;;
35550;SDS011;21655;46.056;13.616;2023-07-20T12:34:58;5.85;;;3.20;;
35550;SDS011;21655;46.056;13.616;2023-07-20T12:37:25;5.72;;;2.83;;
35550;SDS011;21655;46.056;13.616;2023-07-20T12:39:51;5.68;;;2.70;;
35550;SDS011;21655;46.056;13.616;2023-07-20T12:42:17;5.32;;;2.63;;
35550;SDS011;21655;46.056;13.616;2023-07-20T12:44:42;5.28;;;3.33;;
35550;SDS011;21655;46.056;13.616;2023-07-20T12:47:07;5.82;;;3.10;;
35550;SDS011;21655;46.056;13.616;2023-07-20T12:49:33;6.72;;;3.15;;
35550;SDS011;21655;46.056;13.616;2023-07-20T12:51:58;6.57;;;2.78;;
35550;SDS011;21655;46.056;13.616;2023-07-20T12:54:24;5.93;;;3.10;;
35550;SDS011;21655;46.056;13.616;2023-07-20T12:56:49;6.68;;;2.85;;
35550;SDS011;21655;46.056;13.616;2023-07-20T12:59:15;7.30;;;3.20;;
35550;SDS011;21655;46.056;13.616;2023-07-20T13:01:40;5.07;;;3.10;;
35550;SDS011;21655;46.056;13.616;2023-07-20T13:04:06;6.13;;;2.58;;
35550;SDS011;21655;46.056;13.616;2023-07-20T13:06:35;4.80;;;2.90;;
35550;SDS011;21655;46.056;13.616;2023-07-20T13:09:01;5.15;;;2.92;;
35550;SDS011;21655;46.056;13.616;2023-07-20T13:11:27;6.47;;;2.70;;
35550;SDS011;21655;46.056;13.616;2023-07-20T13:13:54;5.47;;;2.80;;
35550;SDS011;21655;46.056;13.616;2023-07-20T13:16:19;6.40;;;2.40;;
35550;SDS011;21655;46.056;13.616;2023-07-20T13:18:44;7.07;;;2.95;;
35550;SDS011;21655;46.056;13.616;2023-07-20T13:21:10;9.32;;;2.95;;
35550;SDS011;21655;46.056;13.616;2023-07-20T13:23:36;5.32;;;2.95;;
35550;SDS011;21655;46.056;13.616;2023-07-20T13:26:02;5.25;;;2.97;;
35550;SDS011;21655;46.056;13.616;2023-07-20T13:28:29;5.45;;;2.72;;
35550;SDS011;21655;46.056;13.616;2023-07-20T13:30:55;9.52;;;3.13;;
35550;SDS011;21655;46.056;13.616;2023-07-20T13:33:20;7.70;;;3.00;;
35550;SDS011;21655;46.056;13.616;2023-07-20T13:35:46;5.03;;;2.88;;
35550;SDS011;21655;46.056;13.616;2023-07-20T13:38:11;6.25;;;2.90;;
35550;SDS011;21655;46.056;13.616;2023-07-20T13:40:37;5.43;;;3.13;;
35550;SDS011;21655;46.056;13.616;2023-07-20T13:43:03;7.40;;;3.33;;
35550;SDS011;21655;46.056;13.616;2023-07-20T13:45:28;6.07;;;3.08;;
35550;SDS011;21655;46.056;13.616;2023-07-20T13:47:53;9.60;;;3.00;;
35550;SDS011;21655;46.056;13.616;2023-07-20T13:50:19;6.25;;;3.20;;
35550;SDS011;21655;46.056;13.616;2023-07-20T13:52:45;5.55;;;2.97;;
35550;SDS011;21655;46.056;13.616;2023-07-20T13:55:10;6.47;;;3.05;;
35550;SDS011;21655;46.056;13.616;2023-07-20T13:57:36;5.72;;;2.65;;
35550;SDS011;21655;46.056;13.616;2023-07-20T14:00:02;6.18;;;3.03;;
35550;SDS011;21655;46.056;13.616;2023-07-20T14:02:29;5.50;;;3.10;;
35550;SDS011;21655;46.056;13.616;2023-07-20T14:04:54;5.95;;;3.58;;
35550;SDS011;21655;46.056;13.616;2023-07-20T14:07:20;6.25;;;3.25;;
35550;SDS011;21655;46.056;13.616;2023-07-20T14:09:46;8.48;;;3.20;;
35550;SDS011;21655;46.056;13.616;2023-07-20T14:12:12;5.35;;;3.25;;
35550;SDS011;21655;46.056;13.616;2023-07-20T14:14:39;4.10;;;2.80;;
35550;SDS011;21655;46.056;13.616;2023-07-20T14:17:06;5.07;;;3.08;;
35550;SDS011;21655;46.056;13.616;2023-07-20T14:19:31;7.43;;;3.20;;
35550;SDS011;21655;46.056;13.616;2023-07-20T14:21:57;7.32;;;3.00;;
35550;SDS011;21655;46.056;13.616;2023-07-20T14:24:24;4.75;;;2.85;;
35550;SDS011;21655;46.056;13.616;2023-07-20T14:26:50;5.97;;;2.95;;
35550;SDS011;21655;46.056;13.616;2023-07-20T14:29:16;6.00;;;2.92;;
35550;SDS011;21655;46.056;13.616;2023-07-20T14:31:43;7.15;;;2.95;;
35550;SDS011;21655;46.056;13.616;2023-07-20T14:34:08;4.97;;;2.90;;
35550;SDS011;21655;46.056;13.616;2023-07-20T14:36:34;8.45;;;3.00;;
35550;SDS011;21655;46.056;13.616;2023-07-20T14:39:00;6.18;;;3.33;;
35550;SDS011;21655;46.056;13.616;2023-07-20T14:41:25;6.30;;;2.95;;
35550;SDS011;21655;46.056;13.616;2023-07-20T14:43:51;8.02;;;3.00;;
35550;SDS011;21655;46.056;13.616;2023-07-20T14:46:17;5.55;;;3.10;;
35550;SDS011;21655;46.056;13.616;2023-07-20T14:48:42;9.23;;;3.35;;